createdAt,value
2018-03-29T00:00:30.694Z,0.00
2018-03-29T00:01:30.773Z,0.00
2018-03-29T00:02:30.695Z,0.00
2018-03-29T00:03:31.031Z,0.00
2018-03-29T00:04:30.808Z,0.00
2018-03-29T00:05:30.786Z,0.00
2018-03-29T00:06:30.807Z,0.00
2018-03-29T00:07:30.841Z,0.00
2018-03-29T00:08:30.871Z,0.00
2018-03-29T00:09:30.913Z,0.00
2018-03-29T00:10:31.225Z,0.00
2018-03-29T00:11:30.948Z,0.00
2018-03-29T00:12:30.982Z,0.00
2018-03-29T00:13:31.006Z,0.00
2018-03-29T00:14:31.032Z,0.00
2018-03-29T00:15:31.072Z,0.00
2018-03-29T00:16:31.126Z,0.00
2018-03-29T00:17:31.373Z,0.00
2018-03-29T00:18:31.152Z,0.00
2018-03-29T00:19:31.177Z,0.00
2018-03-29T00:20:31.248Z,0.00
2018-03-29T00:21:31.280Z,0.00
2018-03-29T00:22:31.264Z,0.00
2018-03-29T00:23:31.294Z,0.00
2018-03-29T00:24:31.617Z,0.00
2018-03-29T00:25:31.352Z,0.00
2018-03-29T00:26:31.372Z,0.00
2018-03-29T00:27:31.406Z,0.00
2018-03-29T00:28:31.516Z,0.00
2018-03-29T00:29:31.461Z,0.00
2018-03-29T00:30:31.489Z,0.00
2018-03-29T00:31:31.817Z,0.00
2018-03-29T00:32:31.556Z,0.00
2018-03-29T00:33:31.632Z,0.00
2018-03-29T00:34:31.718Z,0.00
2018-03-29T00:35:31.670Z,0.00
2018-03-29T00:36:31.656Z,0.00
2018-03-29T00:37:31.681Z,0.00
2018-03-29T00:38:32.011Z,0.00
2018-03-29T00:39:31.741Z,0.00
2018-03-29T00:40:31.794Z,0.00
2018-03-29T00:41:31.798Z,0.00
2018-03-29T00:42:31.822Z,0.00
2018-03-29T00:43:31.851Z,0.00
2018-03-29T00:44:31.882Z,0.00
2018-03-29T00:45:32.259Z,0.00
2018-03-29T00:46:31.933Z,0.00
2018-03-29T00:47:31.973Z,0.00
2018-03-29T00:48:32.029Z,0.00
2018-03-29T00:49:32.018Z,0.00
2018-03-29T00:50:32.078Z,0.00
2018-03-29T00:51:32.172Z,0.00
2018-03-29T00:52:32.427Z,0.00
2018-03-29T00:53:32.250Z,0.00
2018-03-29T00:54:32.161Z,0.00
2018-03-29T00:55:32.189Z,0.00
2018-03-29T00:56:32.216Z,0.00
2018-03-29T00:57:32.294Z,0.00
2018-03-29T00:58:32.277Z,0.00
2018-03-29T00:59:32.564Z,0.00
2018-03-29T01:00:32.340Z,0.00
2018-03-29T01:01:32.357Z,0.00
2018-03-29T01:02:32.386Z,0.00
2018-03-29T01:03:32.463Z,0.00
2018-03-29T01:04:32.449Z,0.00
2018-03-29T01:05:32.476Z,0.00
2018-03-29T01:06:32.862Z,0.00
2018-03-29T01:07:32.528Z,0.00
2018-03-29T01:08:32.554Z,0.00
2018-03-29T01:09:32.584Z,0.00
2018-03-29T01:10:32.662Z,0.00
2018-03-29T01:11:32.639Z,0.00
2018-03-29T01:12:32.976Z,0.00
2018-03-29T01:13:32.708Z,0.00
2018-03-29T01:14:32.726Z,0.00
2018-03-29T01:15:32.822Z,0.00
2018-03-29T01:16:32.810Z,0.00
2018-03-29T01:17:32.809Z,0.00
2018-03-29T01:18:33.089Z,0.00
2018-03-29T01:19:32.868Z,0.00
2018-03-29T01:20:32.895Z,0.00
2018-03-29T01:21:32.927Z,0.00
2018-03-29T01:22:32.965Z,0.00
2018-03-29T01:23:32.977Z,0.00
2018-03-29T01:24:33.257Z,0.00
2018-03-29T01:25:33.035Z,0.00
2018-03-29T01:26:33.066Z,0.00
2018-03-29T01:27:33.097Z,0.00
2018-03-29T01:28:33.122Z,0.00
2018-03-29T01:29:33.146Z,0.00
2018-03-29T01:30:33.501Z,0.00
2018-03-29T01:31:33.207Z,0.00
2018-03-29T01:32:33.233Z,0.00
2018-03-29T01:33:33.258Z,0.00
2018-03-29T01:34:33.296Z,0.00
2018-03-29T01:35:33.370Z,0.00
2018-03-29T01:36:33.599Z,0.00
2018-03-29T01:37:33.414Z,0.00
2018-03-29T01:38:33.417Z,0.00
2018-03-29T01:39:33.431Z,0.00
2018-03-29T01:40:33.490Z,0.00
2018-03-29T01:41:33.502Z,0.00
2018-03-29T01:42:33.772Z,0.00
2018-03-29T01:43:33.542Z,0.00
2018-03-29T01:44:33.673Z,0.00
2018-03-29T01:45:33.599Z,0.00
2018-03-29T01:46:33.635Z,0.00
2018-03-29T01:47:33.694Z,0.00
2018-03-29T01:48:33.982Z,0.00
2018-03-29T01:49:33.766Z,0.00
2018-03-29T01:50:33.739Z,0.00
2018-03-29T01:51:33.769Z,0.00
2018-03-29T01:52:33.801Z,0.00
2018-03-29T01:53:33.822Z,0.00
2018-03-29T01:54:34.166Z,0.00
2018-03-29T01:55:33.879Z,0.00
2018-03-29T01:56:33.907Z,0.00
2018-03-29T01:57:33.937Z,0.00
2018-03-29T01:58:33.976Z,0.00
2018-03-29T01:59:34.000Z,0.00
2018-03-29T02:00:34.339Z,0.00
2018-03-29T02:01:34.052Z,0.00
2018-03-29T02:02:34.075Z,0.00
2018-03-29T02:03:34.130Z,0.00
2018-03-29T02:04:34.140Z,0.00
2018-03-29T02:05:34.171Z,0.00
2018-03-29T02:06:34.501Z,0.00
2018-03-29T02:07:34.224Z,0.00
2018-03-29T02:08:34.330Z,0.00
2018-03-29T02:09:34.282Z,0.00
2018-03-29T02:10:34.316Z,0.00
2018-03-29T02:11:34.329Z,0.00
2018-03-29T02:12:34.672Z,0.00
2018-03-29T02:13:34.390Z,0.00
2018-03-29T02:14:34.443Z,0.00
2018-03-29T02:15:34.451Z,0.00
2018-03-29T02:16:34.495Z,0.00
2018-03-29T02:17:34.503Z,0.00
2018-03-29T02:18:34.890Z,0.00
2018-03-29T02:19:34.559Z,0.00
2018-03-29T02:20:34.587Z,0.00
2018-03-29T02:21:34.621Z,0.00
2018-03-29T02:22:34.654Z,0.00
2018-03-29T02:23:34.765Z,0.00
2018-03-29T02:24:34.698Z,0.00
2018-03-29T02:25:35.046Z,0.00
2018-03-29T02:26:34.797Z,0.00
2018-03-29T02:27:34.796Z,0.00
2018-03-29T02:28:34.809Z,0.00
2018-03-29T02:29:34.956Z,0.00
2018-03-29T02:30:34.870Z,0.00
2018-03-29T02:31:34.957Z,0.00
2018-03-29T02:32:35.223Z,0.00
2018-03-29T02:33:35.066Z,0.00
2018-03-29T02:34:35.024Z,0.00
2018-03-29T02:35:35.010Z,0.00
2018-03-29T02:36:35.088Z,0.00
2018-03-29T02:37:35.064Z,0.00
2018-03-29T02:38:35.103Z,0.00
2018-03-29T02:39:35.372Z,0.00
2018-03-29T02:40:35.147Z,0.00
2018-03-29T02:41:35.242Z,0.00
2018-03-29T02:42:35.229Z,0.00
2018-03-29T02:43:35.233Z,0.00
2018-03-29T02:44:35.269Z,0.00
2018-03-29T02:45:35.304Z,0.00
2018-03-29T02:46:35.623Z,0.00
2018-03-29T02:47:35.411Z,0.00
2018-03-29T02:48:35.424Z,0.00
2018-03-29T02:49:35.405Z,0.00
2018-03-29T02:50:35.431Z,0.00
2018-03-29T02:51:35.457Z,0.00
2018-03-29T02:52:35.488Z,0.00
2018-03-29T02:53:35.872Z,0.00
2018-03-29T02:54:35.543Z,0.00
2018-03-29T02:55:35.600Z,0.00
2018-03-29T02:56:35.603Z,0.00
2018-03-29T02:57:35.634Z,0.00
2018-03-29T02:58:35.774Z,0.00
2018-03-29T02:59:35.753Z,0.00
2018-03-29T03:00:35.964Z,0.00
2018-03-29T03:01:35.806Z,0.00
2018-03-29T03:02:35.769Z,0.00
2018-03-29T03:03:35.798Z,0.00
2018-03-29T03:04:35.831Z,0.00
2018-03-29T03:05:35.857Z,0.00
2018-03-29T03:06:35.885Z,0.00
2018-03-29T03:07:36.214Z,0.00
2018-03-29T03:08:35.939Z,0.00
2018-03-29T03:09:35.971Z,0.00
2018-03-29T03:10:35.999Z,0.00
2018-03-29T03:11:36.035Z,0.00
2018-03-29T03:12:36.052Z,0.00
2018-03-29T03:13:36.079Z,0.00
2018-03-29T03:14:36.458Z,0.00
2018-03-29T03:15:36.179Z,0.00
2018-03-29T03:16:36.176Z,0.00
2018-03-29T03:17:36.204Z,0.00
2018-03-29T03:18:36.221Z,0.00
2018-03-29T03:19:36.298Z,0.00
2018-03-29T03:20:36.278Z,0.00
2018-03-29T03:21:36.558Z,0.00
2018-03-29T03:22:36.336Z,0.00
2018-03-29T03:23:36.411Z,0.00
2018-03-29T03:24:36.396Z,0.00
2018-03-29T03:25:36.425Z,0.00
2018-03-29T03:26:36.448Z,0.00
2018-03-29T03:27:36.484Z,0.00
2018-03-29T03:28:36.758Z,0.00
2018-03-29T03:29:36.535Z,0.00
2018-03-29T03:30:36.570Z,0.00
2018-03-29T03:31:36.594Z,0.00
2018-03-29T03:32:36.621Z,0.00
2018-03-29T03:33:36.699Z,0.00
2018-03-29T03:34:36.741Z,0.00
2018-03-29T03:35:37.000Z,0.00
2018-03-29T03:36:36.743Z,0.00
2018-03-29T03:37:36.760Z,0.00
2018-03-29T03:38:36.840Z,0.00
2018-03-29T03:39:36.818Z,0.00
2018-03-29T03:40:36.846Z,0.00
2018-03-29T03:41:37.173Z,0.00
2018-03-29T03:42:36.920Z,0.00
2018-03-29T03:43:36.983Z,0.00
2018-03-29T03:44:36.961Z,0.00
2018-03-29T03:45:37.026Z,0.00
2018-03-29T03:46:37.026Z,0.00
2018-03-29T03:47:37.351Z,0.00
2018-03-29T03:48:37.067Z,0.00
2018-03-29T03:49:37.099Z,0.00
2018-03-29T03:50:37.194Z,0.00
2018-03-29T03:51:37.163Z,0.00
2018-03-29T03:52:37.221Z,0.00
2018-03-29T03:53:37.513Z,0.00
2018-03-29T03:54:37.291Z,0.00
2018-03-29T03:55:37.299Z,0.00
2018-03-29T03:56:37.325Z,0.00
2018-03-29T03:57:37.327Z,0.00
2018-03-29T03:58:37.382Z,0.00
2018-03-29T03:59:37.705Z,0.00
2018-03-29T04:00:37.482Z,0.00
2018-03-29T04:01:37.447Z,0.00
2018-03-29T04:02:37.591Z,0.00
2018-03-29T04:03:37.500Z,0.00
2018-03-29T04:04:37.531Z,0.00
2018-03-29T04:05:37.803Z,0.00
2018-03-29T04:06:37.634Z,0.00
2018-03-29T04:07:37.663Z,0.00
2018-03-29T04:08:37.636Z,0.00
2018-03-29T04:09:37.673Z,0.00
2018-03-29T04:10:37.693Z,0.00
2018-03-29T04:11:37.978Z,0.00
2018-03-29T04:12:37.751Z,0.00
2018-03-29T04:13:37.795Z,0.00
2018-03-29T04:14:37.809Z,0.00
2018-03-29T04:15:37.834Z,0.00
2018-03-29T04:16:37.862Z,0.00
2018-03-29T04:17:38.292Z,0.00
2018-03-29T04:18:37.947Z,0.00
2018-03-29T04:19:37.954Z,0.00
2018-03-29T04:20:37.988Z,0.00
2018-03-29T04:21:38.015Z,0.00
2018-03-29T04:22:38.031Z,0.00
2018-03-29T04:23:38.364Z,0.00
2018-03-29T04:24:38.095Z,0.00
2018-03-29T04:25:38.149Z,0.00
2018-03-29T04:26:38.145Z,0.00
2018-03-29T04:27:38.176Z,0.00
2018-03-29T04:28:38.205Z,0.00
2018-03-29T04:29:38.536Z,0.00
2018-03-29T04:30:38.260Z,0.00
2018-03-29T04:31:38.297Z,0.00
2018-03-29T04:32:38.325Z,0.00
2018-03-29T04:33:38.344Z,0.00
2018-03-29T04:34:38.386Z,0.00
2018-03-29T04:35:38.765Z,0.00
2018-03-29T04:36:38.455Z,0.00
2018-03-29T04:37:38.458Z,0.00
2018-03-29T04:38:38.485Z,0.00
2018-03-29T04:39:38.519Z,0.00
2018-03-29T04:40:38.619Z,0.00
2018-03-29T04:41:38.830Z,0.00
2018-03-29T04:42:38.610Z,0.00
2018-03-29T04:43:38.648Z,0.00
2018-03-29T04:44:38.689Z,0.00
2018-03-29T04:45:38.747Z,0.00
2018-03-29T04:46:38.729Z,0.00
2018-03-29T04:47:39.043Z,0.00
2018-03-29T04:48:38.795Z,0.00
2018-03-29T04:49:38.809Z,0.00
2018-03-29T04:50:38.825Z,0.00
2018-03-29T04:51:38.853Z,0.00
2018-03-29T04:52:38.883Z,0.00
2018-03-29T04:53:38.969Z,0.00
2018-03-29T04:54:39.287Z,0.00
2018-03-29T04:55:38.967Z,0.00
2018-03-29T04:56:39.006Z,0.00
2018-03-29T04:57:39.091Z,0.00
2018-03-29T04:58:39.058Z,0.00
2018-03-29T04:59:39.083Z,0.00
2018-03-29T05:00:39.131Z,0.00
2018-03-29T05:01:39.390Z,0.00
2018-03-29T05:02:39.170Z,0.00
2018-03-29T05:03:39.193Z,0.00
2018-03-29T05:04:39.262Z,0.00
2018-03-29T05:05:39.262Z,0.00
2018-03-29T05:06:39.287Z,0.00
2018-03-29T05:07:39.342Z,0.00
2018-03-29T05:08:39.666Z,0.00
2018-03-29T05:09:39.362Z,0.00
2018-03-29T05:10:39.415Z,0.00
2018-03-29T05:11:39.474Z,0.00
2018-03-29T05:12:39.452Z,0.00
2018-03-29T05:13:39.483Z,0.00
2018-03-29T05:14:39.548Z,0.00
2018-03-29T05:15:39.807Z,0.00
2018-03-29T05:16:39.630Z,0.00
2018-03-29T05:17:39.597Z,0.00
2018-03-29T05:18:39.700Z,0.00
2018-03-29T05:19:39.666Z,0.00
2018-03-29T05:20:39.727Z,0.00
2018-03-29T05:21:39.716Z,0.00
2018-03-29T05:22:40.041Z,0.00
2018-03-29T05:23:39.778Z,0.00
2018-03-29T05:24:39.797Z,0.00
2018-03-29T05:25:39.826Z,0.00
2018-03-29T05:26:39.868Z,0.00
2018-03-29T05:27:39.900Z,0.00
2018-03-29T05:28:39.914Z,0.00
2018-03-29T05:29:40.190Z,0.00
2018-03-29T05:30:39.964Z,0.00
2018-03-29T05:31:39.995Z,0.00
2018-03-29T05:32:40.017Z,0.00
2018-03-29T05:33:40.059Z,0.00
2018-03-29T05:34:40.081Z,0.00
2018-03-29T05:35:40.127Z,0.00
2018-03-29T05:36:40.403Z,0.00
2018-03-29T05:37:40.209Z,5.63
2018-03-29T05:38:40.192Z,5.63
2018-03-29T05:39:40.217Z,5.63
2018-03-29T05:40:40.317Z,5.63
2018-03-29T05:41:40.319Z,5.63
2018-03-29T05:42:40.358Z,5.63
2018-03-29T05:43:40.595Z,5.63
2018-03-29T05:44:40.359Z,5.63
2018-03-29T05:45:40.396Z,5.63
2018-03-29T05:46:40.418Z,11.25
2018-03-29T05:47:40.446Z,11.25
2018-03-29T05:48:40.481Z,11.25
2018-03-29T05:49:40.542Z,11.25
2018-03-29T05:50:40.848Z,11.25
2018-03-29T05:51:40.565Z,11.25
2018-03-29T05:52:40.591Z,11.25
2018-03-29T05:53:40.811Z,11.25
2018-03-29T05:54:40.644Z,11.25
2018-03-29T05:55:40.678Z,11.25
2018-03-29T05:56:40.701Z,11.25
2018-03-29T05:57:41.041Z,11.25
2018-03-29T05:58:40.815Z,16.88
2018-03-29T05:59:40.788Z,16.88
2018-03-29T06:00:40.840Z,16.88
2018-03-29T06:01:40.848Z,16.88
2018-03-29T06:02:40.987Z,16.88
2018-03-29T06:03:40.907Z,16.88
2018-03-29T06:04:41.209Z,16.88
2018-03-29T06:05:40.971Z,16.88
2018-03-29T06:06:40.986Z,16.88
2018-03-29T06:07:41.065Z,22.50
2018-03-29T06:08:41.046Z,22.50
2018-03-29T06:09:41.079Z,16.88
2018-03-29T06:10:41.350Z,22.50
2018-03-29T06:11:41.131Z,22.50
2018-03-29T06:12:41.164Z,22.50
2018-03-29T06:13:41.200Z,16.88
2018-03-29T06:14:41.218Z,16.88
2018-03-29T06:15:41.248Z,22.50
2018-03-29T06:16:41.521Z,22.50
2018-03-29T06:17:41.312Z,22.50
2018-03-29T06:18:41.382Z,22.50
2018-03-29T06:19:41.360Z,28.13
2018-03-29T06:20:41.393Z,28.13
2018-03-29T06:21:41.422Z,28.13
2018-03-29T06:22:41.694Z,28.13
2018-03-29T06:23:41.483Z,28.13
2018-03-29T06:24:41.516Z,28.13
2018-03-29T06:25:41.529Z,28.13
2018-03-29T06:26:41.561Z,28.13
2018-03-29T06:27:41.586Z,33.75
2018-03-29T06:28:41.871Z,33.75
2018-03-29T06:29:41.652Z,33.75
2018-03-29T06:30:41.681Z,33.75
2018-03-29T06:31:41.699Z,33.75
2018-03-29T06:32:41.744Z,33.75
2018-03-29T06:33:41.778Z,28.13
2018-03-29T06:34:42.108Z,28.13
2018-03-29T06:35:41.821Z,22.50
2018-03-29T06:36:41.869Z,22.50
2018-03-29T06:37:41.883Z,22.50
2018-03-29T06:38:42.011Z,16.88
2018-03-29T06:39:41.938Z,16.88
2018-03-29T06:40:42.262Z,16.88
2018-03-29T06:41:41.987Z,22.50
2018-03-29T06:42:42.015Z,22.50
2018-03-29T06:43:42.044Z,22.50
2018-03-29T06:44:42.072Z,28.13
2018-03-29T06:45:42.113Z,39.38
2018-03-29T06:46:42.443Z,39.38
2018-03-29T06:47:42.163Z,45.00
2018-03-29T06:48:42.218Z,45.00
2018-03-29T06:49:42.220Z,50.63
2018-03-29T06:50:42.272Z,50.63
2018-03-29T06:51:42.276Z,50.63
2018-03-29T06:52:42.557Z,50.63
2018-03-29T06:53:42.342Z,50.63
2018-03-29T06:54:42.421Z,50.63
2018-03-29T06:55:42.412Z,45.00
2018-03-29T06:56:42.417Z,45.00
2018-03-29T06:57:42.449Z,45.00
2018-03-29T06:58:42.731Z,45.00
2018-03-29T06:59:42.502Z,45.00
2018-03-29T07:00:42.540Z,45.00
2018-03-29T07:01:42.559Z,45.00
2018-03-29T07:02:42.599Z,50.63
2018-03-29T07:03:42.619Z,50.63
2018-03-29T07:04:42.896Z,61.88
2018-03-29T07:05:42.676Z,61.88
2018-03-29T07:06:42.804Z,67.50
2018-03-29T07:07:42.735Z,67.50
2018-03-29T07:08:42.761Z,67.50
2018-03-29T07:09:42.815Z,67.50
2018-03-29T07:10:43.072Z,73.13
2018-03-29T07:11:42.845Z,73.13
2018-03-29T07:12:42.878Z,73.13
2018-03-29T07:13:42.910Z,67.50
2018-03-29T07:14:42.941Z,67.50
2018-03-29T07:15:42.965Z,61.88
2018-03-29T07:16:43.294Z,61.88
2018-03-29T07:17:43.029Z,56.25
2018-03-29T07:18:43.096Z,56.25
2018-03-29T07:19:43.075Z,56.25
2018-03-29T07:20:43.132Z,56.25
2018-03-29T07:21:43.152Z,56.25
2018-03-29T07:22:43.190Z,56.25
2018-03-29T07:23:43.448Z,56.25
2018-03-29T07:24:43.219Z,61.88
2018-03-29T07:25:43.256Z,61.88
2018-03-29T07:26:43.296Z,67.50
2018-03-29T07:27:43.410Z,67.50
2018-03-29T07:28:43.341Z,73.13
2018-03-29T07:29:43.365Z,73.13
2018-03-29T07:30:43.696Z,78.75
2018-03-29T07:31:43.433Z,73.13
2018-03-29T07:32:43.459Z,73.13
2018-03-29T07:33:43.477Z,73.13
2018-03-29T07:34:43.512Z,73.13
2018-03-29T07:35:43.538Z,73.13
2018-03-29T07:36:43.585Z,67.50
2018-03-29T07:37:43.909Z,67.50
2018-03-29T07:38:43.629Z,73.13
2018-03-29T07:39:43.660Z,67.50
2018-03-29T07:40:43.728Z,67.50
2018-03-29T07:41:43.713Z,67.50
2018-03-29T07:42:43.736Z,61.88
2018-03-29T07:43:43.769Z,61.88
2018-03-29T07:44:44.104Z,56.25
2018-03-29T07:45:43.828Z,56.25
2018-03-29T07:46:43.862Z,67.50
2018-03-29T07:47:43.887Z,67.50
2018-03-29T07:48:43.939Z,56.25
2018-03-29T07:49:43.952Z,56.25
2018-03-29T07:50:43.970Z,56.25
2018-03-29T07:51:44.304Z,56.25
2018-03-29T07:52:44.030Z,56.25
2018-03-29T07:53:44.058Z,50.63
2018-03-29T07:54:44.083Z,50.63
2018-03-29T07:55:44.131Z,45.00
2018-03-29T07:56:44.147Z,50.63
2018-03-29T07:57:44.257Z,50.63
2018-03-29T07:58:44.452Z,50.63
2018-03-29T07:59:44.230Z,56.25
2018-03-29T08:00:44.267Z,61.88
2018-03-29T08:01:44.296Z,73.13
2018-03-29T08:02:44.313Z,61.88
2018-03-29T08:03:44.343Z,61.88
2018-03-29T08:04:44.376Z,61.88
2018-03-29T08:05:44.699Z,61.88
2018-03-29T08:06:44.426Z,56.25
2018-03-29T08:07:44.459Z,56.25
2018-03-29T08:08:44.493Z,56.25
2018-03-29T08:09:44.515Z,45.00
2018-03-29T08:10:44.550Z,56.25
2018-03-29T08:11:44.574Z,45.00
2018-03-29T08:12:44.913Z,45.00
2018-03-29T08:13:44.699Z,39.38
2018-03-29T08:14:44.674Z,33.75
2018-03-29T08:15:44.686Z,39.38
2018-03-29T08:16:44.722Z,39.38
2018-03-29T08:17:44.762Z,39.38
2018-03-29T08:18:44.788Z,45.00
2018-03-29T08:19:45.132Z,39.38
2018-03-29T08:20:44.838Z,39.38
2018-03-29T08:21:44.874Z,45.00
2018-03-29T08:22:44.890Z,45.00
2018-03-29T08:23:44.972Z,45.00
2018-03-29T08:24:44.995Z,45.00
2018-03-29T08:25:44.987Z,50.63
2018-03-29T08:26:45.253Z,56.25
2018-03-29T08:27:45.038Z,61.88
2018-03-29T08:28:45.066Z,61.88
2018-03-29T08:29:45.095Z,61.88
2018-03-29T08:30:45.122Z,61.88
2018-03-29T08:31:45.151Z,56.25
2018-03-29T08:32:45.181Z,61.88
2018-03-29T08:33:45.456Z,56.25
2018-03-29T08:34:45.246Z,61.88
2018-03-29T08:35:45.263Z,61.88
2018-03-29T08:36:45.290Z,56.25
2018-03-29T08:37:45.342Z,56.25
2018-03-29T08:38:45.364Z,56.25
2018-03-29T08:39:45.684Z,67.50
2018-03-29T08:40:45.408Z,67.50
2018-03-29T08:41:45.482Z,67.50
2018-03-29T08:42:45.468Z,67.50
2018-03-29T08:43:45.511Z,78.75
2018-03-29T08:44:45.533Z,67.50
2018-03-29T08:45:45.804Z,67.50
2018-03-29T08:46:45.613Z,67.50
2018-03-29T08:47:45.640Z,78.75
2018-03-29T08:48:45.640Z,95.63
2018-03-29T08:49:45.673Z,84.38
2018-03-29T08:50:45.705Z,112.50
2018-03-29T08:51:46.036Z,106.88
2018-03-29T08:52:45.756Z,101.25
2018-03-29T08:53:45.789Z,84.38
2018-03-29T08:54:45.814Z,84.38
2018-03-29T08:55:45.884Z,90.00
2018-03-29T08:56:45.891Z,78.75
2018-03-29T08:57:46.158Z,78.75
2018-03-29T08:58:45.924Z,78.75
2018-03-29T08:59:45.960Z,90.00
2018-03-29T09:00:45.998Z,84.38
2018-03-29T09:01:46.020Z,73.13
2018-03-29T09:02:46.047Z,61.88
2018-03-29T09:03:46.371Z,61.88
2018-03-29T09:04:46.106Z,61.88
2018-03-29T09:05:46.127Z,61.88
2018-03-29T09:06:46.158Z,73.13
2018-03-29T09:07:46.185Z,78.75
2018-03-29T09:08:46.220Z,73.13
2018-03-29T09:09:46.554Z,78.75
2018-03-29T09:10:46.275Z,84.38
2018-03-29T09:11:46.301Z,78.75
2018-03-29T09:12:46.337Z,73.13
2018-03-29T09:13:46.363Z,73.13
2018-03-29T09:14:46.387Z,67.50
2018-03-29T09:15:46.725Z,73.13
2018-03-29T09:16:46.447Z,73.13
2018-03-29T09:17:46.477Z,73.13
2018-03-29T09:18:46.543Z,84.38
2018-03-29T09:19:46.539Z,84.38
2018-03-29T09:20:46.569Z,90.00
2018-03-29T09:21:46.912Z,101.25
2018-03-29T09:22:46.636Z,106.88
2018-03-29T09:23:46.898Z,129.38
2018-03-29T09:24:46.720Z,123.75
2018-03-29T09:25:46.715Z,123.75
2018-03-29T09:26:46.742Z,135.00
2018-03-29T09:27:47.094Z,135.00
2018-03-29T09:28:46.799Z,112.50
2018-03-29T09:29:46.834Z,118.13
2018-03-29T09:30:46.868Z,129.38
2018-03-29T09:31:46.911Z,135.00
2018-03-29T09:32:46.994Z,146.25
2018-03-29T09:33:47.254Z,140.63
2018-03-29T09:34:46.996Z,129.38
2018-03-29T09:35:47.001Z,129.38
2018-03-29T09:36:47.033Z,135.00
2018-03-29T09:37:47.077Z,129.38
2018-03-29T09:38:47.099Z,146.25
2018-03-29T09:39:47.445Z,146.25
2018-03-29T09:40:47.145Z,135.00
2018-03-29T09:41:47.267Z,129.38
2018-03-29T09:42:47.207Z,129.38
2018-03-29T09:43:47.275Z,135.00
2018-03-29T09:44:47.277Z,140.63
2018-03-29T09:45:47.600Z,140.63
2018-03-29T09:46:47.324Z,135.00
2018-03-29T09:47:47.349Z,123.75
2018-03-29T09:48:47.582Z,123.75
2018-03-29T09:49:47.416Z,112.50
2018-03-29T09:50:47.428Z,112.50
2018-03-29T09:51:48.310Z,123.75
2018-03-29T09:52:47.742Z,112.50
2018-03-29T09:53:47.522Z,101.25
2018-03-29T09:54:47.551Z,101.25
2018-03-29T09:55:47.594Z,90.00
2018-03-29T09:56:47.618Z,95.63
2018-03-29T09:57:47.646Z,90.00
2018-03-29T09:58:47.723Z,84.38
2018-03-29T09:59:47.962Z,95.63
2018-03-29T10:00:47.734Z,90.00
2018-03-29T10:01:47.780Z,84.38
2018-03-29T10:02:47.788Z,101.25
2018-03-29T10:03:47.868Z,118.13
2018-03-29T10:04:47.997Z,135.00
2018-03-29T10:05:47.871Z,123.75
2018-03-29T10:06:48.196Z,118.13
2018-03-29T10:07:47.943Z,106.88
2018-03-29T10:08:47.972Z,101.25
2018-03-29T10:09:47.987Z,101.25
2018-03-29T10:10:48.019Z,101.25
2018-03-29T10:11:48.054Z,101.25
2018-03-29T10:12:48.073Z,95.63
2018-03-29T10:13:48.359Z,95.63
2018-03-29T10:14:48.154Z,95.63
2018-03-29T10:15:48.171Z,101.25
2018-03-29T10:16:48.199Z,101.25
2018-03-29T10:17:48.225Z,101.25
2018-03-29T10:18:48.276Z,106.88
2018-03-29T10:19:48.277Z,118.13
2018-03-29T10:20:48.619Z,135.00
2018-03-29T10:21:48.337Z,151.88
2018-03-29T10:22:48.370Z,146.25
2018-03-29T10:23:48.397Z,135.00
2018-03-29T10:24:48.424Z,123.75
2018-03-29T10:25:48.459Z,123.75
2018-03-29T10:26:48.484Z,123.75
2018-03-29T10:27:48.784Z,135.00
2018-03-29T10:28:48.542Z,151.88
2018-03-29T10:29:48.585Z,151.88
2018-03-29T10:30:48.601Z,151.88
2018-03-29T10:31:48.692Z,135.00
2018-03-29T10:32:48.662Z,123.75
2018-03-29T10:33:48.690Z,112.50
2018-03-29T10:34:48.975Z,101.25
2018-03-29T10:35:48.805Z,101.25
2018-03-29T10:36:48.779Z,106.88
2018-03-29T10:37:48.822Z,112.50
2018-03-29T10:38:48.836Z,112.50
2018-03-29T10:39:48.884Z,112.50
2018-03-29T10:40:48.913Z,118.13
2018-03-29T10:41:49.230Z,112.50
2018-03-29T10:42:48.955Z,106.88
2018-03-29T10:43:48.989Z,106.88
2018-03-29T10:44:49.018Z,101.25
2018-03-29T10:45:49.053Z,101.25
2018-03-29T10:46:49.069Z,101.25
2018-03-29T10:47:49.171Z,106.88
2018-03-29T10:48:49.406Z,106.88
2018-03-29T10:49:49.170Z,112.50
2018-03-29T10:50:49.192Z,118.13
2018-03-29T10:51:49.219Z,112.50
2018-03-29T10:52:49.252Z,123.75
2018-03-29T10:53:49.278Z,146.25
2018-03-29T10:54:49.313Z,174.38
2018-03-29T10:55:49.639Z,185.63
2018-03-29T10:56:49.387Z,174.38
2018-03-29T10:57:49.409Z,185.63
2018-03-29T10:58:49.459Z,180.00
2018-03-29T10:59:49.477Z,185.63
2018-03-29T11:00:49.529Z,174.38
2018-03-29T11:01:49.527Z,163.13
2018-03-29T11:02:50.002Z,146.25
2018-03-29T11:03:49.587Z,135.00
2018-03-29T11:04:49.660Z,112.50
2018-03-29T11:05:49.671Z,106.88
2018-03-29T11:06:49.694Z,95.63
2018-03-29T11:07:49.705Z,90.00
2018-03-29T11:08:49.740Z,90.00
2018-03-29T11:09:50.053Z,90.00
2018-03-29T11:10:49.787Z,90.00
2018-03-29T11:11:49.812Z,95.63
2018-03-29T11:12:49.841Z,106.88
2018-03-29T11:13:49.871Z,118.13
2018-03-29T11:14:49.900Z,135.00
2018-03-29T11:15:50.245Z,135.00
2018-03-29T11:16:50.011Z,112.50
2018-03-29T11:17:50.142Z,106.88
2018-03-29T11:18:50.039Z,118.13
2018-03-29T11:19:50.051Z,129.38
2018-03-29T11:20:50.086Z,135.00
2018-03-29T11:21:50.411Z,129.38
2018-03-29T11:22:50.137Z,123.75
2018-03-29T11:23:50.178Z,140.63
2018-03-29T11:24:50.198Z,157.50
2018-03-29T11:25:50.248Z,174.38
2018-03-29T11:26:50.295Z,174.38
2018-03-29T11:27:50.647Z,168.75
2018-03-29T11:28:50.318Z,174.38
2018-03-29T11:29:50.543Z,185.63
2018-03-29T11:30:50.437Z,196.88
2018-03-29T11:31:50.415Z,191.25
2018-03-29T11:32:50.437Z,180.00
2018-03-29T11:33:50.772Z,157.50
2018-03-29T11:34:50.503Z,135.00
2018-03-29T11:35:50.543Z,135.00
2018-03-29T11:36:50.571Z,151.88
2018-03-29T11:37:50.614Z,168.75
2018-03-29T11:38:50.632Z,191.25
2018-03-29T11:39:50.649Z,202.50
2018-03-29T11:40:50.957Z,202.50
2018-03-29T11:41:50.710Z,196.88
2018-03-29T11:42:50.748Z,191.25
2018-03-29T11:43:50.780Z,202.50
2018-03-29T11:44:50.798Z,225.00
2018-03-29T11:45:50.841Z,213.75
2018-03-29T11:46:50.856Z,180.00
2018-03-29T11:47:50.897Z,151.88
2018-03-29T11:48:51.026Z,118.13
2018-03-29T11:49:50.959Z,95.63
2018-03-29T11:50:50.993Z,95.63
2018-03-29T11:51:51.078Z,95.63
2018-03-29T11:52:51.373Z,106.88
2018-03-29T11:53:51.074Z,112.50
2018-03-29T11:54:51.148Z,129.38
2018-03-29T11:55:51.147Z,157.50
2018-03-29T11:56:51.282Z,180.00
2018-03-29T11:57:51.200Z,191.25
2018-03-29T11:58:51.245Z,180.00
2018-03-29T11:59:51.332Z,168.75
2018-03-29T12:00:51.335Z,146.25
2018-03-29T12:01:51.394Z,135.00
2018-03-29T12:02:51.360Z,146.25
2018-03-29T12:03:51.378Z,146.25
2018-03-29T12:04:51.715Z,157.50
2018-03-29T12:05:51.435Z,196.88
2018-03-29T12:06:51.516Z,219.38
2018-03-29T12:07:51.501Z,213.75
2018-03-29T12:08:51.518Z,196.88
2018-03-29T12:09:51.556Z,202.50
2018-03-29T12:10:51.833Z,208.13
2018-03-29T12:11:51.694Z,208.13
2018-03-29T12:12:51.677Z,196.88
2018-03-29T12:13:51.699Z,202.50
2018-03-29T12:14:51.740Z,213.75
2018-03-29T12:15:51.728Z,219.38
2018-03-29T12:16:52.008Z,225.00
2018-03-29T12:17:51.796Z,225.00
2018-03-29T12:18:51.827Z,225.00
2018-03-29T12:19:51.919Z,219.38
2018-03-29T12:20:51.880Z,219.38
2018-03-29T12:21:51.910Z,219.38
2018-03-29T12:22:51.944Z,208.13
2018-03-29T12:23:52.286Z,202.50
2018-03-29T12:24:52.021Z,191.25
2018-03-29T12:25:52.081Z,185.63
2018-03-29T12:26:52.064Z,185.63
2018-03-29T12:27:52.098Z,185.63
2018-03-29T12:28:52.136Z,191.25
2018-03-29T12:29:52.169Z,213.75
2018-03-29T12:30:52.517Z,253.13
2018-03-29T12:31:52.265Z,236.25
2018-03-29T12:32:52.270Z,236.25
2018-03-29T12:33:52.288Z,281.25
2018-03-29T12:34:52.405Z,270.00
2018-03-29T12:35:52.342Z,247.50
2018-03-29T12:36:52.365Z,236.25
2018-03-29T12:37:52.720Z,208.13
2018-03-29T12:38:52.430Z,180.00
2018-03-29T12:39:52.472Z,180.00
2018-03-29T12:40:52.490Z,174.38
2018-03-29T12:41:52.534Z,174.38
2018-03-29T12:42:52.548Z,174.38
2018-03-29T12:43:52.587Z,174.38
2018-03-29T12:44:52.929Z,191.25
2018-03-29T12:45:52.645Z,208.13
2018-03-29T12:46:52.670Z,225.00
2018-03-29T12:47:52.717Z,219.38
2018-03-29T12:48:52.805Z,213.75
2018-03-29T12:49:52.762Z,213.75
2018-03-29T12:50:52.795Z,208.13
2018-03-29T12:51:53.125Z,213.75
2018-03-29T12:52:52.857Z,225.00
2018-03-29T12:53:52.941Z,236.25
2018-03-29T12:54:52.920Z,241.88
2018-03-29T12:55:52.943Z,253.13
2018-03-29T12:56:53.182Z,258.75
2018-03-29T12:57:53.020Z,270.00